sensor_id;sensor_type;location;lat;lon;timestamp;P1;durP1;ratioP1;P2;durP2;ratioP2
6015;SDS011;3036;49.960;8.454;2022-11-15T00:00:44;5.40;;;3.87;;
6015;SDS011;3036;49.960;8.454;2022-11-15T00:03:12;6.07;;;3.47;;
6015;SDS011;3036;49.960;8.454;2022-11-15T00:05:40;4.30;;;2.83;;
6015;SDS011;3036;49.960;8.454;2022-11-15T00:08:07;5.70;;;3.47;;
6015;SDS011;3036;49.960;8.454;2022-11-15T00:10:34;8.33;;;4.00;;
6015;SDS011;3036;49.960;8.454;2022-11-15T00:13:03;4.63;;;3.83;;
6015;SDS011;3036;49.960;8.454;2022-11-15T00:15:31;5.77;;;2.80;;
6015;SDS011;3036;49.960;8.454;2022-11-15T00:17:59;6.30;;;4.03;;
6015;SDS011;3036;49.960;8.454;2022-11-15T00:20:26;6.07;;;3.90;;
6015;SDS011;3036;49.960;8.454;2022-11-15T00:22:53;3.97;;;3.57;;
6015;SDS011;3036;49.960;8.454;2022-11-15T00:25:20;6.40;;;4.17;;
6015;SDS011;3036;49.960;8.454;2022-11-15T00:27:47;6.97;;;3.93;;
6015;SDS011;3036;49.960;8.454;2022-11-15T00:30:16;7.40;;;4.43;;
6015;SDS011;3036;49.960;8.454;2022-11-15T00:32:43;4.33;;;3.90;;
6015;SDS011;3036;49.960;8.454;2022-11-15T00:35:12;6.03;;;4.17;;
6015;SDS011;3036;49.960;8.454;2022-11-15T00:37:39;5.43;;;4.27;;
6015;SDS011;3036;49.960;8.454;2022-11-15T00:40:07;6.07;;;3.87;;
6015;SDS011;3036;49.960;8.454;2022-11-15T00:42:34;4.13;;;3.83;;
6015;SDS011;3036;49.960;8.454;2022-11-15T00:45:01;5.83;;;4.10;;
6015;SDS011;3036;49.960;8.454;2022-11-15T00:47:28;4.60;;;3.97;;
6015;SDS011;3036;49.960;8.454;2022-11-15T00:49:55;9.17;;;4.10;;
6015;SDS011;3036;49.960;8.454;2022-11-15T00:52:24;3.93;;;3.40;;
6015;SDS011;3036;49.960;8.454;2022-11-15T00:54:51;4.37;;;3.80;;
6015;SDS011;3036;49.960;8.454;2022-11-15T00:57:18;5.37;;;3.70;;
6015;SDS011;3036;49.960;8.454;2022-11-15T00:59:45;7.37;;;3.70;;
6015;SDS011;3036;49.960;8.454;2022-11-15T01:02:12;5.37;;;4.03;;
6015;SDS011;3036;49.960;8.454;2022-11-15T01:04:39;6.10;;;3.63;;
6015;SDS011;3036;49.960;8.454;2022-11-15T01:07:06;7.33;;;4.27;;
6015;SDS011;3036;49.960;8.454;2022-11-15T01:09:35;4.97;;;3.87;;
6015;SDS011;3036;49.960;8.454;2022-11-15T01:12:02;7.23;;;4.57;;
6015;SDS011;3036;49.960;8.454;2022-11-15T01:14:29;5.30;;;3.80;;
6015;SDS011;3036;49.960;8.454;2022-11-15T01:16:56;4.20;;;3.77;;
6015;SDS011;3036;49.960;8.454;2022-11-15T01:19:23;6.67;;;3.93;;
6015;SDS011;3036;49.960;8.454;2022-11-15T01:21:51;4.20;;;3.80;;
6015;SDS011;3036;49.960;8.454;2022-11-15T01:24:18;5.63;;;4.03;;
6015;SDS011;3036;49.960;8.454;2022-11-15T01:26:46;4.33;;;3.63;;
6015;SDS011;3036;49.960;8.454;2022-11-15T01:29:13;5.63;;;3.53;;
6015;SDS011;3036;49.960;8.454;2022-11-15T01:31:40;2.87;;;2.77;;
6015;SDS011;3036;49.960;8.454;2022-11-15T01:34:07;3.67;;;3.30;;
6015;SDS011;3036;49.960;8.454;2022-11-15T01:36:35;5.80;;;3.67;;
6015;SDS011;3036;49.960;8.454;2022-11-15T01:39:02;3.83;;;3.50;;
6015;SDS011;3036;49.960;8.454;2022-11-15T01:41:30;4.53;;;3.97;;
6015;SDS011;3036;49.960;8.454;2022-11-15T01:46:40;5.47;;;3.80;;
6015;SDS011;3036;49.960;8.454;2022-11-15T01:49:11;5.80;;;3.60;;
6015;SDS011;3036;49.960;8.454;2022-11-15T01:51:39;3.90;;;3.53;;
6015;SDS011;3036;49.960;8.454;2022-11-15T01:54:07;4.70;;;3.90;;
6015;SDS011;3036;49.960;8.454;2022-11-15T01:56:36;5.13;;;3.73;;
6015;SDS011;3036;49.960;8.454;2022-11-15T01:59:05;4.60;;;3.90;;
6015;SDS011;3036;49.960;8.454;2022-11-15T02:01:33;5.00;;;3.90;;
6015;SDS011;3036;49.960;8.454;2022-11-15T02:04:02;4.53;;;3.80;;
6015;SDS011;3036;49.960;8.454;2022-11-15T02:06:31;5.87;;;3.77;;
6015;SDS011;3036;49.960;8.454;2022-11-15T02:08:58;3.80;;;3.50;;
6015;SDS011;3036;49.960;8.454;2022-11-15T02:11:26;3.57;;;3.23;;
6015;SDS011;3036;49.960;8.454;2022-11-15T02:13:53;5.07;;;4.47;;
6015;SDS011;3036;49.960;8.454;2022-11-15T02:16:23;10.03;;;4.97;;
6015;SDS011;3036;49.960;8.454;2022-11-15T02:18:55;9.40;;;4.00;;
6015;SDS011;3036;49.960;8.454;2022-11-15T02:21:27;7.87;;;4.87;;
6015;SDS011;3036;49.960;8.454;2022-11-15T02:24:11;8.03;;;5.17;;
6015;SDS011;3036;49.960;8.454;2022-11-15T02:27:04;13.53;;;7.03;;
6015;SDS011;3036;49.960;8.454;2022-11-15T02:29:40;16.53;;;7.17;;
6015;SDS011;3036;49.960;8.454;2022-11-15T02:32:11;15.33;;;6.97;;
6015;SDS011;3036;49.960;8.454;2022-11-15T02:34:43;10.07;;;5.93;;
6015;SDS011;3036;49.960;8.454;2022-11-15T02:37:15;10.03;;;5.33;;
6015;SDS011;3036;49.960;8.454;2022-11-15T02:39:45;9.47;;;5.10;;
6015;SDS011;3036;49.960;8.454;2022-11-15T02:42:15;6.07;;;4.37;;
6015;SDS011;3036;49.960;8.454;2022-11-15T02:45:03;8.20;;;4.23;;
6015;SDS011;3036;49.960;8.454;2022-11-15T02:47:34;6.17;;;4.70;;
6015;SDS011;3036;49.960;8.454;2022-11-15T02:50:05;10.87;;;4.60;;
6015;SDS011;3036;49.960;8.454;2022-11-15T02:52:33;10.33;;;5.03;;
6015;SDS011;3036;49.960;8.454;2022-11-15T02:55:00;7.03;;;4.67;;
6015;SDS011;3036;49.960;8.454;2022-11-15T02:57:30;8.90;;;4.47;;
6015;SDS011;3036;49.960;8.454;2022-11-15T03:00:01;4.87;;;4.30;;
6015;SDS011;3036;49.960;8.454;2022-11-15T03:02:38;6.17;;;4.27;;
6015;SDS011;3036;49.960;8.454;2022-11-15T03:05:11;6.50;;;4.40;;
6015;SDS011;3036;49.960;8.454;2022-11-15T03:07:41;5.83;;;4.20;;
6015;SDS011;3036;49.960;8.454;2022-11-15T03:10:12;8.03;;;4.17;;
6015;SDS011;3036;49.960;8.454;2022-11-15T03:12:41;7.27;;;4.00;;
6015;SDS011;3036;49.960;8.454;2022-11-15T03:15:09;6.00;;;4.73;;
6015;SDS011;3036;49.960;8.454;2022-11-15T03:17:41;5.47;;;4.43;;
6015;SDS011;3036;49.960;8.454;2022-11-15T03:20:09;8.30;;;4.63;;
6015;SDS011;3036;49.960;8.454;2022-11-15T03:22:39;6.57;;;3.73;;
6015;SDS011;3036;49.960;8.454;2022-11-15T03:25:08;7.07;;;4.57;;
6015;SDS011;3036;49.960;8.454;2022-11-15T03:27:39;4.30;;;3.83;;
6015;SDS011;3036;49.960;8.454;2022-11-15T03:30:08;4.30;;;3.90;;
6015;SDS011;3036;49.960;8.454;2022-11-15T03:32:35;4.33;;;3.93;;
6015;SDS011;3036;49.960;8.454;2022-11-15T03:35:06;6.43;;;3.73;;
6015;SDS011;3036;49.960;8.454;2022-11-15T03:37:35;3.93;;;3.63;;
6015;SDS011;3036;49.960;8.454;2022-11-15T03:40:04;6.50;;;4.00;;
6015;SDS011;3036;49.960;8.454;2022-11-15T03:42:32;5.07;;;3.70;;
6015;SDS011;3036;49.960;8.454;2022-11-15T03:45:05;3.03;;;2.80;;
6015;SDS011;3036;49.960;8.454;2022-11-15T03:47:36;3.57;;;3.33;;
6015;SDS011;3036;49.960;8.454;2022-11-15T03:50:08;3.80;;;3.50;;
6015;SDS011;3036;49.960;8.454;2022-11-15T03:52:37;4.23;;;3.67;;
6015;SDS011;3036;49.960;8.454;2022-11-15T03:55:06;7.30;;;4.10;;
6015;SDS011;3036;49.960;8.454;2022-11-15T03:57:34;3.93;;;3.20;;
6015;SDS011;3036;49.960;8.454;2022-11-15T04:00:01;4.90;;;3.50;;
6015;SDS011;3036;49.960;8.454;2022-11-15T04:02:28;4.93;;;3.67;;
6015;SDS011;3036;49.960;8.454;2022-11-15T04:04:55;3.50;;;3.20;;
6015;SDS011;3036;49.960;8.454;2022-11-15T04:07:24;3.73;;;3.43;;
6015;SDS011;3036;49.960;8.454;2022-11-15T04:09:51;3.93;;;3.63;;
6015;SDS011;3036;49.960;8.454;2022-11-15T04:12:30;3.77;;;3.40;;
6015;SDS011;3036;49.960;8.454;2022-11-15T04:14:58;3.50;;;3.23;;
6015;SDS011;3036;49.960;8.454;2022-11-15T04:17:38;5.60;;;3.40;;
6015;SDS011;3036;49.960;8.454;2022-11-15T04:20:07;3.43;;;3.13;;
6015;SDS011;3036;49.960;8.454;2022-11-15T04:22:54;6.33;;;4.33;;
6015;SDS011;3036;49.960;8.454;2022-11-15T04:25:44;7.70;;;4.53;;
6015;SDS011;3036;49.960;8.454;2022-11-15T04:28:12;4.53;;;4.10;;
6015;SDS011;3036;49.960;8.454;2022-11-15T04:30:39;5.03;;;3.40;;
6015;SDS011;3036;49.960;8.454;2022-11-15T04:33:06;4.70;;;3.40;;
6015;SDS011;3036;49.960;8.454;2022-11-15T04:35:33;6.67;;;3.83;;
6015;SDS011;3036;49.960;8.454;2022-11-15T04:38:03;11.37;;;6.33;;
6015;SDS011;3036;49.960;8.454;2022-11-15T04:40:29;6.23;;;4.50;;
6015;SDS011;3036;49.960;8.454;2022-11-15T04:42:56;13.93;;;7.80;;
6015;SDS011;3036;49.960;8.454;2022-11-15T04:45:24;16.20;;;7.80;;
6015;SDS011;3036;49.960;8.454;2022-11-15T04:47:51;5.47;;;4.67;;
6015;SDS011;3036;49.960;8.454;2022-11-15T04:50:18;9.43;;;4.13;;
6015;SDS011;3036;49.960;8.454;2022-11-15T04:52:49;10.00;;;3.23;;
6015;SDS011;3036;49.960;8.454;2022-11-15T04:55:18;4.20;;;3.33;;
6015;SDS011;3036;49.960;8.454;2022-11-15T04:57:45;2.97;;;2.77;;
6015;SDS011;3036;49.960;8.454;2022-11-15T05:00:13;3.00;;;2.60;;
6015;SDS011;3036;49.960;8.454;2022-11-15T05:02:42;3.57;;;3.27;;
6015;SDS011;3036;49.960;8.454;2022-11-15T05:05:27;3.27;;;2.87;;
6015;SDS011;3036;49.960;8.454;2022-11-15T05:07:54;6.53;;;3.47;;
6015;SDS011;3036;49.960;8.454;2022-11-15T05:10:22;3.00;;;2.80;;
6015;SDS011;3036;49.960;8.454;2022-11-15T05:12:49;3.63;;;2.93;;
6015;SDS011;3036;49.960;8.454;2022-11-15T05:15:16;2.57;;;2.37;;
6015;SDS011;3036;49.960;8.454;2022-11-15T05:17:43;2.50;;;2.37;;
6015;SDS011;3036;49.960;8.454;2022-11-15T05:20:11;2.90;;;2.63;;
6015;SDS011;3036;49.960;8.454;2022-11-15T05:22:38;3.07;;;2.23;;
6015;SDS011;3036;49.960;8.454;2022-11-15T05:25:06;2.73;;;2.53;;
6015;SDS011;3036;49.960;8.454;2022-11-15T05:27:34;3.87;;;2.60;;
6015;SDS011;3036;49.960;8.454;2022-11-15T05:30:01;2.70;;;2.50;;
6015;SDS011;3036;49.960;8.454;2022-11-15T05:32:29;2.77;;;2.53;;
6015;SDS011;3036;49.960;8.454;2022-11-15T05:34:56;2.90;;;2.70;;
6015;SDS011;3036;49.960;8.454;2022-11-15T05:37:23;2.90;;;2.67;;
6015;SDS011;3036;49.960;8.454;2022-11-15T05:39:50;2.57;;;1.93;;
6015;SDS011;3036;49.960;8.454;2022-11-15T05:42:17;2.50;;;2.33;;
6015;SDS011;3036;49.960;8.454;2022-11-15T05:44:46;2.53;;;2.43;;
6015;SDS011;3036;49.960;8.454;2022-11-15T05:47:15;3.87;;;3.17;;
6015;SDS011;3036;49.960;8.454;2022-11-15T05:49:43;2.70;;;2.50;;
6015;SDS011;3036;49.960;8.454;2022-11-15T05:52:11;5.40;;;3.00;;
6015;SDS011;3036;49.960;8.454;2022-11-15T05:54:41;3.13;;;2.73;;
6015;SDS011;3036;49.960;8.454;2022-11-15T05:57:08;4.63;;;3.23;;
6015;SDS011;3036;49.960;8.454;2022-11-15T05:59:35;4.33;;;2.97;;
6015;SDS011;3036;49.960;8.454;2022-11-15T06:02:04;3.17;;;2.97;;
6015;SDS011;3036;49.960;8.454;2022-11-15T06:04:31;3.00;;;2.77;;
6015;SDS011;3036;49.960;8.454;2022-11-15T06:06:58;4.33;;;2.63;;
6015;SDS011;3036;49.960;8.454;2022-11-15T06:09:25;4.57;;;3.20;;
6015;SDS011;3036;49.960;8.454;2022-11-15T06:11:52;3.03;;;2.80;;
6015;SDS011;3036;49.960;8.454;2022-11-15T06:14:19;3.20;;;3.00;;
6015;SDS011;3036;49.960;8.454;2022-11-15T06:16:46;5.73;;;3.10;;
6015;SDS011;3036;49.960;8.454;2022-11-15T06:19:15;5.70;;;3.27;;
6015;SDS011;3036;49.960;8.454;2022-11-15T06:21:42;5.07;;;3.13;;
6015;SDS011;3036;49.960;8.454;2022-11-15T06:24:09;3.70;;;3.40;;
6015;SDS011;3036;49.960;8.454;2022-11-15T06:26:36;5.23;;;3.53;;
6015;SDS011;3036;49.960;8.454;2022-11-15T06:29:03;4.83;;;4.33;;
6015;SDS011;3036;49.960;8.454;2022-11-15T06:31:31;4.50;;;4.10;;
6015;SDS011;3036;49.960;8.454;2022-11-15T06:33:58;4.67;;;3.90;;
6015;SDS011;3036;49.960;8.454;2022-11-15T06:36:26;13.97;;;8.50;;
6015;SDS011;3036;49.960;8.454;2022-11-15T06:38:53;17.63;;;11.57;;
6015;SDS011;3036;49.960;8.454;2022-11-15T06:41:21;8.10;;;6.67;;
6015;SDS011;3036;49.960;8.454;2022-11-15T06:43:48;6.43;;;5.27;;
6015;SDS011;3036;49.960;8.454;2022-11-15T06:46:15;11.33;;;6.23;;
6015;SDS011;3036;49.960;8.454;2022-11-15T06:48:42;7.10;;;5.67;;
6015;SDS011;3036;49.960;8.454;2022-11-15T06:51:09;4.87;;;4.40;;
6015;SDS011;3036;49.960;8.454;2022-11-15T06:53:37;10.17;;;4.50;;
6015;SDS011;3036;49.960;8.454;2022-11-15T06:56:05;4.80;;;3.50;;
6015;SDS011;3036;49.960;8.454;2022-11-15T06:58:34;4.10;;;3.63;;
6015;SDS011;3036;49.960;8.454;2022-11-15T07:01:01;5.53;;;3.40;;
6015;SDS011;3036;49.960;8.454;2022-11-15T07:03:29;5.97;;;3.27;;
6015;SDS011;3036;49.960;8.454;2022-11-15T07:05:57;6.00;;;3.47;;
6015;SDS011;3036;49.960;8.454;2022-11-15T07:08:26;3.63;;;3.33;;
6015;SDS011;3036;49.960;8.454;2022-11-15T07:10:55;6.80;;;6.10;;
6015;SDS011;3036;49.960;8.454;2022-11-15T07:13:24;13.57;;;8.47;;
6015;SDS011;3036;49.960;8.454;2022-11-15T07:15:51;8.20;;;6.60;;
6015;SDS011;3036;49.960;8.454;2022-11-15T07:18:19;5.97;;;4.73;;
6015;SDS011;3036;49.960;8.454;2022-11-15T07:20:46;5.37;;;4.00;;
6015;SDS011;3036;49.960;8.454;2022-11-15T07:23:13;4.33;;;3.63;;
6015;SDS011;3036;49.960;8.454;2022-11-15T07:25:40;4.63;;;3.40;;
6015;SDS011;3036;49.960;8.454;2022-11-15T07:28:08;3.30;;;3.00;;
6015;SDS011;3036;49.960;8.454;2022-11-15T07:30:35;4.00;;;3.63;;
6015;SDS011;3036;49.960;8.454;2022-11-15T07:33:03;5.13;;;3.47;;
6015;SDS011;3036;49.960;8.454;2022-11-15T07:35:30;5.43;;;3.53;;
6015;SDS011;3036;49.960;8.454;2022-11-15T07:37:57;5.87;;;3.30;;
6015;SDS011;3036;49.960;8.454;2022-11-15T07:40:24;3.80;;;3.37;;
6015;SDS011;3036;49.960;8.454;2022-11-15T07:42:52;8.77;;;3.50;;
6015;SDS011;3036;49.960;8.454;2022-11-15T07:45:20;4.07;;;3.50;;
6015;SDS011;3036;49.960;8.454;2022-11-15T07:47:48;3.53;;;2.97;;
6015;SDS011;3036;49.960;8.454;2022-11-15T07:50:15;3.50;;;3.10;;
6015;SDS011;3036;49.960;8.454;2022-11-15T07:52:42;3.80;;;3.43;;
6015;SDS011;3036;49.960;8.454;2022-11-15T07:55:09;3.47;;;3.10;;
6015;SDS011;3036;49.960;8.454;2022-11-15T07:57:37;3.73;;;3.43;;
6015;SDS011;3036;49.960;8.454;2022-11-15T08:00:04;4.17;;;3.60;;
6015;SDS011;3036;49.960;8.454;2022-11-15T08:02:33;3.80;;;3.60;;
6015;SDS011;3036;49.960;8.454;2022-11-15T08:05:00;3.80;;;3.37;;
6015;SDS011;3036;49.960;8.454;2022-11-15T08:07:28;4.70;;;3.47;;
6015;SDS011;3036;49.960;8.454;2022-11-15T08:09:56;3.30;;;3.03;;
6015;SDS011;3036;49.960;8.454;2022-11-15T08:12:23;3.87;;;3.10;;
6015;SDS011;3036;49.960;8.454;2022-11-15T08:14:50;3.20;;;3.00;;
6015;SDS011;3036;49.960;8.454;2022-11-15T08:17:17;3.20;;;2.37;;
6015;SDS011;3036;49.960;8.454;2022-11-15T08:19:45;3.23;;;2.93;;
6015;SDS011;3036;49.960;8.454;2022-11-15T08:22:13;3.87;;;2.90;;
6015;SDS011;3036;49.960;8.454;2022-11-15T08:24:40;4.23;;;3.10;;
6015;SDS011;3036;49.960;8.454;2022-11-15T08:27:07;5.17;;;3.23;;
6015;SDS011;3036;49.960;8.454;2022-11-15T08:29:39;4.80;;;3.40;;
6015;SDS011;3036;49.960;8.454;2022-11-15T08:32:06;8.33;;;3.73;;
6015;SDS011;3036;49.960;8.454;2022-11-15T08:34:33;3.80;;;3.20;;
6015;SDS011;3036;49.960;8.454;2022-11-15T08:37:02;3.93;;;3.03;;
6015;SDS011;3036;49.960;8.454;2022-11-15T08:39:29;3.10;;;2.83;;
6015;SDS011;3036;49.960;8.454;2022-11-15T08:41:56;3.67;;;2.83;;
6015;SDS011;3036;49.960;8.454;2022-11-15T08:44:23;4.40;;;2.90;;
6015;SDS011;3036;49.960;8.454;2022-11-15T08:46:50;4.53;;;3.20;;
6015;SDS011;3036;49.960;8.454;2022-11-15T08:49:17;3.53;;;3.23;;
6015;SDS011;3036;49.960;8.454;2022-11-15T08:51:44;2.97;;;2.77;;
6015;SDS011;3036;49.960;8.454;2022-11-15T08:54:13;3.47;;;3.00;;
6015;SDS011;3036;49.960;8.454;2022-11-15T08:56:40;2.70;;;2.50;;
6015;SDS011;3036;49.960;8.454;2022-11-15T08:59:07;3.20;;;2.93;;
6015;SDS011;3036;49.960;8.454;2022-11-15T09:01:34;3.43;;;3.13;;
6015;SDS011;3036;49.960;8.454;2022-11-15T09:04:01;4.03;;;3.40;;
6015;SDS011;3036;49.960;8.454;2022-11-15T09:06:29;5.17;;;4.37;;
6015;SDS011;3036;49.960;8.454;2022-11-15T09:08:56;5.33;;;4.30;;
6015;SDS011;3036;49.960;8.454;2022-11-15T09:11:24;3.30;;;3.00;;
6015;SDS011;3036;49.960;8.454;2022-11-15T09:13:51;4.27;;;3.50;;
6015;SDS011;3036;49.960;8.454;2022-11-15T09:16:19;3.40;;;3.10;;
6015;SDS011;3036;49.960;8.454;2022-11-15T09:18:46;3.73;;;2.90;;
6015;SDS011;3036;49.960;8.454;2022-11-15T09:21:13;3.27;;;2.97;;
6015;SDS011;3036;49.960;8.454;2022-11-15T09:23:40;3.27;;;2.97;;
6015;SDS011;3036;49.960;8.454;2022-11-15T09:26:07;3.87;;;3.13;;
6015;SDS011;3036;49.960;8.454;2022-11-15T09:28:35;4.13;;;3.00;;
6015;SDS011;3036;49.960;8.454;2022-11-15T09:31:04;2.90;;;2.70;;
6015;SDS011;3036;49.960;8.454;2022-11-15T09:33:31;3.30;;;3.00;;
6015;SDS011;3036;49.960;8.454;2022-11-15T09:36:02;3.20;;;3.00;;
6015;SDS011;3036;49.960;8.454;2022-11-15T09:38:29;3.20;;;3.00;;
6015;SDS011;3036;49.960;8.454;2022-11-15T09:41:05;3.40;;;3.03;;
6015;SDS011;3036;49.960;8.454;2022-11-15T09:43:37;3.23;;;2.93;;
6015;SDS011;3036;49.960;8.454;2022-11-15T09:46:09;3.23;;;2.97;;
6015;SDS011;3036;49.960;8.454;2022-11-15T09:48:46;5.20;;;2.67;;
6015;SDS011;3036;49.960;8.454;2022-11-15T09:51:18;6.30;;;3.10;;
6015;SDS011;3036;49.960;8.454;2022-11-15T09:53:48;3.13;;;2.67;;
6015;SDS011;3036;49.960;8.454;2022-11-15T09:56:18;3.10;;;2.87;;
6015;SDS011;3036;49.960;8.454;2022-11-15T09:58:52;4.80;;;3.30;;
6015;SDS011;3036;49.960;8.454;2022-11-15T10:01:22;3.80;;;3.17;;
6015;SDS011;3036;49.960;8.454;2022-11-15T10:03:55;2.70;;;2.43;;
6015;SDS011;3036;49.960;8.454;2022-11-15T10:06:24;5.07;;;3.37;;
6015;SDS011;3036;49.960;8.454;2022-11-15T10:08:54;2.90;;;2.70;;
6015;SDS011;3036;49.960;8.454;2022-11-15T10:11:23;3.10;;;2.90;;
6015;SDS011;3036;49.960;8.454;2022-11-15T10:13:53;4.10;;;2.87;;
6015;SDS011;3036;49.960;8.454;2022-11-15T10:16:26;3.00;;;2.80;;
6015;SDS011;3036;49.960;8.454;2022-11-15T10:18:59;4.20;;;3.23;;
6015;SDS011;3036;49.960;8.454;2022-11-15T10:21:29;3.47;;;3.17;;
6015;SDS011;3036;49.960;8.454;2022-11-15T10:23:59;4.10;;;2.93;;
6015;SDS011;3036;49.960;8.454;2022-11-15T10:26:26;4.73;;;3.10;;
6015;SDS011;3036;49.960;8.454;2022-11-15T10:28:54;4.47;;;2.83;;
6015;SDS011;3036;49.960;8.454;2022-11-15T10:31:22;5.60;;;3.43;;
6015;SDS011;3036;49.960;8.454;2022-11-15T10:33:49;8.20;;;2.80;;
6015;SDS011;3036;49.960;8.454;2022-11-15T10:36:19;3.00;;;2.80;;
6015;SDS011;3036;49.960;8.454;2022-11-15T10:38:51;3.53;;;2.93;;
6015;SDS011;3036;49.960;8.454;2022-11-15T10:41:19;3.23;;;2.93;;
6015;SDS011;3036;49.960;8.454;2022-11-15T10:44:00;2.90;;;2.70;;
6015;SDS011;3036;49.960;8.454;2022-11-15T10:46:29;4.13;;;3.43;;
6015;SDS011;3036;49.960;8.454;2022-11-15T10:49:03;3.27;;;3.00;;
6015;SDS011;3036;49.960;8.454;2022-11-15T10:51:40;9.23;;;5.77;;
6015;SDS011;3036;49.960;8.454;2022-11-15T10:54:08;6.63;;;4.00;;
6015;SDS011;3036;49.960;8.454;2022-11-15T10:56:37;3.20;;;2.90;;
6015;SDS011;3036;49.960;8.454;2022-11-15T10:59:07;4.63;;;2.87;;
6015;SDS011;3036;49.960;8.454;2022-11-15T11:01:46;4.67;;;2.77;;
6015;SDS011;3036;49.960;8.454;2022-11-15T11:04:14;5.10;;;3.87;;
6015;SDS011;3036;49.960;8.454;2022-11-15T11:06:48;5.97;;;3.80;;
6015;SDS011;3036;49.960;8.454;2022-11-15T11:09:23;4.00;;;3.60;;
6015;SDS011;3036;49.960;8.454;2022-11-15T11:11:51;4.50;;;3.20;;
6015;SDS011;3036;49.960;8.454;2022-11-15T11:14:20;2.90;;;2.60;;
6015;SDS011;3036;49.960;8.454;2022-11-15T11:16:50;3.97;;;2.97;;
6015;SDS011;3036;49.960;8.454;2022-11-15T11:22:09;5.47;;;4.07;;
6015;SDS011;3036;49.960;8.454;2022-11-15T11:24:41;4.70;;;3.33;;
6015;SDS011;3036;49.960;8.454;2022-11-15T11:27:16;3.50;;;3.20;;
6015;SDS011;3036;49.960;8.454;2022-11-15T11:29:49;4.60;;;2.83;;
6015;SDS011;3036;49.960;8.454;2022-11-15T11:32:26;3.37;;;2.70;;
6015;SDS011;3036;49.960;8.454;2022-11-15T11:34:58;5.13;;;2.80;;
6015;SDS011;3036;49.960;8.454;2022-11-15T11:37:29;4.17;;;3.20;;
6015;SDS011;3036;49.960;8.454;2022-11-15T11:40:00;2.63;;;2.43;;
6015;SDS011;3036;49.960;8.454;2022-11-15T11:42:30;2.90;;;2.63;;
6015;SDS011;3036;49.960;8.454;2022-11-15T11:45:01;3.10;;;2.80;;
6015;SDS011;3036;49.960;8.454;2022-11-15T11:47:35;4.07;;;3.03;;
6015;SDS011;3036;49.960;8.454;2022-11-15T11:50:10;5.20;;;3.07;;
6015;SDS011;3036;49.960;8.454;2022-11-15T11:52:39;4.60;;;2.97;;
6015;SDS011;3036;49.960;8.454;2022-11-15T11:55:12;2.67;;;2.47;;
6015;SDS011;3036;49.960;8.454;2022-11-15T11:57:41;3.70;;;2.87;;
6015;SDS011;3036;49.960;8.454;2022-11-15T12:00:15;2.50;;;2.30;;
6015;SDS011;3036;49.960;8.454;2022-11-15T12:02:47;2.70;;;2.50;;
6015;SDS011;3036;49.960;8.454;2022-11-15T12:05:16;4.77;;;3.53;;
6015;SDS011;3036;49.960;8.454;2022-11-15T12:07:44;3.40;;;3.07;;
6015;SDS011;3036;49.960;8.454;2022-11-15T12:10:15;3.40;;;2.80;;
6015;SDS011;3036;49.960;8.454;2022-11-15T12:12:45;3.57;;;2.90;;
6015;SDS011;3036;49.960;8.454;2022-11-15T12:15:15;3.13;;;2.90;;
6015;SDS011;3036;49.960;8.454;2022-11-15T12:17:43;3.27;;;2.97;;
6015;SDS011;3036;49.960;8.454;2022-11-15T12:20:17;3.37;;;3.17;;
6015;SDS011;3036;49.960;8.454;2022-11-15T12:22:47;3.87;;;2.83;;
6015;SDS011;3036;49.960;8.454;2022-11-15T12:25:16;2.93;;;2.73;;
6015;SDS011;3036;49.960;8.454;2022-11-15T12:27:44;3.40;;;2.87;;
6015;SDS011;3036;49.960;8.454;2022-11-15T12:30:25;5.60;;;3.10;;
6015;SDS011;3036;49.960;8.454;2022-11-15T12:32:54;4.73;;;3.43;;
6015;SDS011;3036;49.960;8.454;2022-11-15T12:35:26;6.17;;;3.03;;
6015;SDS011;3036;49.960;8.454;2022-11-15T12:37:54;3.53;;;3.20;;
6015;SDS011;3036;49.960;8.454;2022-11-15T12:40:32;3.27;;;3.00;;
6015;SDS011;3036;49.960;8.454;2022-11-15T12:46:03;3.07;;;2.67;;
6015;SDS011;3036;49.960;8.454;2022-11-15T12:48:48;3.40;;;3.10;;
6015;SDS011;3036;49.960;8.454;2022-11-15T12:51:16;7.40;;;3.50;;
6015;SDS011;3036;49.960;8.454;2022-11-15T12:53:43;3.23;;;2.93;;
6015;SDS011;3036;49.960;8.454;2022-11-15T12:56:20;2.90;;;2.63;;
6015;SDS011;3036;49.960;8.454;2022-11-15T12:58:50;3.00;;;2.80;;
6015;SDS011;3036;49.960;8.454;2022-11-15T13:04:14;2.53;;;2.40;;
6015;SDS011;3036;49.960;8.454;2022-11-15T13:06:42;5.63;;;2.70;;
6015;SDS011;3036;49.960;8.454;2022-11-15T13:11:56;2.60;;;2.17;;
6015;SDS011;3036;49.960;8.454;2022-11-15T13:17:25;2.77;;;2.57;;
6015;SDS011;3036;49.960;8.454;2022-11-15T13:19:55;3.00;;;2.80;;
6015;SDS011;3036;49.960;8.454;2022-11-15T13:22:24;3.65;;;2.40;;
6015;SDS011;3036;49.960;8.454;2022-11-15T13:25:16;2.23;;;2.13;;
6015;SDS011;3036;49.960;8.454;2022-11-15T13:27:45;2.70;;;2.50;;
6015;SDS011;3036;49.960;8.454;2022-11-15T13:30:13;2.70;;;2.33;;
6015;SDS011;3036;49.960;8.454;2022-11-15T13:32:41;3.65;;;2.42;;
6015;SDS011;3036;49.960;8.454;2022-11-15T13:35:09;2.27;;;2.07;;
6015;SDS011;3036;49.960;8.454;2022-11-15T13:37:36;3.40;;;2.40;;
6015;SDS011;3036;49.960;8.454;2022-11-15T13:40:16;2.80;;;2.35;;
6015;SDS011;3036;49.960;8.454;2022-11-15T13:42:45;6.33;;;3.70;;
6015;SDS011;3036;49.960;8.454;2022-11-15T13:45:13;6.43;;;3.90;;
6015;SDS011;3036;49.960;8.454;2022-11-15T13:47:41;2.58;;;2.47;;
6015;SDS011;3036;49.960;8.454;2022-11-15T13:50:11;2.13;;;1.93;;
6015;SDS011;3036;49.960;8.454;2022-11-15T13:52:39;2.43;;;2.33;;
6015;SDS011;3036;49.960;8.454;2022-11-15T13:55:09;2.47;;;1.60;;
6015;SDS011;3036;49.960;8.454;2022-11-15T13:57:37;2.30;;;2.10;;
6015;SDS011;3036;49.960;8.454;2022-11-15T14:00:24;3.60;;;3.30;;
6015;SDS011;3036;49.960;8.454;2022-11-15T14:02:51;2.40;;;2.30;;
6015;SDS011;3036;49.960;8.454;2022-11-15T14:05:21;2.07;;;1.80;;
6015;SDS011;3036;49.960;8.454;2022-11-15T14:07:52;1.90;;;1.73;;
6015;SDS011;3036;49.960;8.454;2022-11-15T14:10:25;2.05;;;1.88;;
6015;SDS011;3036;49.960;8.454;2022-11-15T14:12:52;1.40;;;1.40;;
6015;SDS011;3036;49.960;8.454;2022-11-15T14:15:24;4.35;;;1.80;;
6015;SDS011;3036;49.960;8.454;2022-11-15T14:17:52;2.30;;;1.33;;
6015;SDS011;3036;49.960;8.454;2022-11-15T14:20:26;1.33;;;1.30;;
6015;SDS011;3036;49.960;8.454;2022-11-15T14:22:54;2.60;;;1.30;;
6015;SDS011;3036;49.960;8.454;2022-11-15T14:25:22;1.27;;;1.17;;
6015;SDS011;3036;49.960;8.454;2022-11-15T14:28:09;1.00;;;1.00;;
6015;SDS011;3036;49.960;8.454;2022-11-15T14:30:36;1.03;;;0.90;;
6015;SDS011;3036;49.960;8.454;2022-11-15T14:33:14;1.00;;;0.90;;
6015;SDS011;3036;49.960;8.454;2022-11-15T14:35:45;0.70;;;0.70;;
6015;SDS011;3036;49.960;8.454;2022-11-15T14:38:12;1.23;;;1.13;;
6015;SDS011;3036;49.960;8.454;2022-11-15T14:40:40;2.28;;;1.10;;
6015;SDS011;3036;49.960;8.454;2022-11-15T14:43:07;5.43;;;1.87;;
6015;SDS011;3036;49.960;8.454;2022-11-15T14:45:35;3.70;;;2.47;;
6015;SDS011;3036;49.960;8.454;2022-11-15T14:48:02;2.73;;;2.47;;
6015;SDS011;3036;49.960;8.454;2022-11-15T14:50:29;3.33;;;2.43;;
6015;SDS011;3036;49.960;8.454;2022-11-15T14:52:57;3.83;;;2.63;;
6015;SDS011;3036;49.960;8.454;2022-11-15T14:55:25;1.97;;;1.77;;
6015;SDS011;3036;49.960;8.454;2022-11-15T14:57:53;1.70;;;0.90;;
6015;SDS011;3036;49.960;8.454;2022-11-15T15:00:20;1.10;;;1.10;;
6015;SDS011;3036;49.960;8.454;2022-11-15T15:02:48;0.80;;;0.80;;
6015;SDS011;3036;49.960;8.454;2022-11-15T15:05:17;1.23;;;0.80;;
6015;SDS011;3036;49.960;8.454;2022-11-15T15:07:44;1.00;;;1.00;;
6015;SDS011;3036;49.960;8.454;2022-11-15T15:10:13;0.97;;;0.97;;
6015;SDS011;3036;49.960;8.454;2022-11-15T15:12:40;0.93;;;0.93;;
6015;SDS011;3036;49.960;8.454;2022-11-15T15:15:11;1.20;;;1.20;;
6015;SDS011;3036;49.960;8.454;2022-11-15T15:17:39;1.03;;;1.03;;
6015;SDS011;3036;49.960;8.454;2022-11-15T15:20:07;1.20;;;1.20;;
6015;SDS011;3036;49.960;8.454;2022-11-15T15:22:34;1.67;;;0.83;;
6015;SDS011;3036;49.960;8.454;2022-11-15T15:25:01;1.60;;;1.00;;
6015;SDS011;3036;49.960;8.454;2022-11-15T15:27:30;1.33;;;0.90;;
6015;SDS011;3036;49.960;8.454;2022-11-15T15:29:57;0.93;;;0.57;;
6015;SDS011;3036;49.960;8.454;2022-11-15T15:32:24;0.80;;;0.80;;
6015;SDS011;3036;49.960;8.454;2022-11-15T15:34:51;1.07;;;1.07;;
6015;SDS011;3036;49.960;8.454;2022-11-15T15:37:22;1.03;;;1.03;;
6015;SDS011;3036;49.960;8.454;2022-11-15T15:39:50;0.80;;;0.80;;
6015;SDS011;3036;49.960;8.454;2022-11-15T15:42:17;1.17;;;0.97;;
6015;SDS011;3036;49.960;8.454;2022-11-15T15:44:46;1.53;;;0.90;;